• Join FlightAware (Why Join?)
  • Login
  • US Flag 
01:51PM EDT


 

Airport Tracker/Info


-or-


 

Live Flight TrackerFlight Track Log ✈ TCF6008 ✈ 23-Apr-2013 ✈ KMKE - KLGA

Flight Track Log - Related Links

Times and Time Zones

All times are in EDT time to prevent confusion due to time zone crossing. See the TCF6008 flight status page for this flight to view local times or setup timezone preferences in your user account.

Time Position Orientation Groundspeed Altitude Reporting Facility
EDT Latitude Longitude Course Direction KTS MPH feet Rate Location/Type
07:59PM 42.9667 -87.9000 200° South 141 162 1,500  Level KMKE
08:00PM 42.9694 -87.8306 87° East 246 283 3,900 1,740 Climbing Chicago Center
08:01PM 42.9042 -87.8136 169° South 237 273 5,900 2,760 Climbing Chicago Center
08:02PM 42.8893 -87.2741 185° South  Level Estimated
08:02PM 42.8131 -87.8011 174° South 275 316 9,600  Level Chicago Center
08:03PM 42.8744 -87.1186 180° South  Level Estimated
08:03PM 42.7389 -87.7794 168° South 273 314 12,600  Level Chicago Center
08:04PM 42.8593 -86.9631 200° South  Level Estimated
08:04PM 42.6617 -87.7575 168° South 281 323 15,300  Level Chicago Center
08:05PM 42.5789 -87.7228 163° South 320 368 16,100 1,200 Climbing Chicago Center
08:06PM 42.4839 -87.6639 155° Southeast 373 429 17,900 1,800 Climbing Chicago Center
08:07PM 42.4244 -87.5250 120° Southeast 425 489 19,800 1,920 Climbing Chicago Center
08:08PM 42.3619 -87.3461 115° Southeast 439 505 21,900 1,680 Climbing Chicago Center
08:09PM 42.3064 -87.1900 116° Southeast 457 526 23,300 1,440 Climbing Chicago Center
08:10PM 42.2489 -87.0289 116° Southeast 472 543 24,900 1,380 Climbing Chicago Center
08:11PM 42.1914 -86.8661 115° Southeast 480 552 26,200 1,200 Climbing Chicago Center
08:13PM 42.1331 -86.7036 116° Southeast 482 555 27,500 1,020 Climbing Chicago Center
08:14PM 42.0769 -86.5458 116° Southeast 487 560 28,300 720 Climbing Chicago Center
08:15PM 42.0019 -86.3442 117° Southeast 500 575 29,000 300 Climbing Chicago Center
08:16PM 41.9531 -86.1689 111° Southeast 510 587 29,000  Level Chicago Center
08:17PM 41.9328 -85.9764 98° East 522 601 29,000  Level Chicago Center
08:18PM 41.9147 -85.7817 97° East 524 603 29,000  Level Chicago Center
08:19PM 41.8961 -85.5839 97° East 529 609 29,000  Level Chicago Center
08:20PM 41.8781 -85.3875 97° East 526 605 29,000  Level Chicago Center
08:21PM 41.8578 -85.1939 98° East 517 595 29,000  Level Chicago Center
08:22PM 41.8444 -85.0322 96° East 512 589 29,000  Level Cleveland Center
08:23PM 41.8244 -84.8414 98° East 512 589 29,000  Level Cleveland Center
08:24PM 41.8022 -84.6533 99° East 512 589 29,000  Level Cleveland Center
08:25PM 41.7817 -84.4597 98° East 512 589 29,000  Level Cleveland Center
08:26PM 41.7658 -84.2497 96° East 512 589 29,000  Level Cleveland Center
08:27PM 41.7531 -84.0569 95° East 512 589 29,000  Level Cleveland Center
08:28PM 41.7400 -83.8642 95° East 512 589 29,000  Level Cleveland Center
08:29PM 41.7264 -83.6772 96° East 517 595 29,000 300 Level Cleveland Center
08:30PM 41.7128 -83.4817 95° East 517 595 29,700 900 Climbing Cleveland Center
08:31PM 41.6986 -83.2919 96° East 517 595 30,900 600 Climbing Cleveland Center
08:32PM 41.6864 -83.0994 95° East 522 601 31,000  Climbing Cleveland Center
08:33PM 41.6717 -82.9072 96° East 522 601 31,000  Level Cleveland Center
08:34PM 41.6567 -82.7175 96° East 522 601 31,000  Level Cleveland Center
08:35PM 41.6433 -82.5283 95° East 522 601 31,000  Level Cleveland Center
08:36PM 41.6297 -82.3417 96° East 522 601 31,000  Level Cleveland Center
08:37PM 41.6136 -82.1522 96° East 517 595 31,000  Level Cleveland Center
08:38PM 41.5992 -81.9686 96° East 510 587 31,000  Level Cleveland Center
08:39PM 41.5844 -81.7964 96° East 510 587 31,000  Level Cleveland Center
08:40PM 41.5675 -81.6100 97° East 505 581 31,000  Level Cleveland Center
08:41PM 41.5503 -81.4239 97° East 505 581 31,000  Level Cleveland Center
08:42PM 41.5350 -81.2378 96° East 500 575 31,000  Level Cleveland Center
08:43PM 41.5150 -81.0325 97° East 501 577 31,000  Level Cleveland Center
08:44PM 41.4989 -80.8436 96° East 501 577 31,000  Level Cleveland Center
08:45PM 41.4806 -80.6636 98° East 501 577 31,000  Level Cleveland Center
08:46PM 41.4264 -80.4972 113° Southeast 494 568 31,000  Level Cleveland Center
08:47PM 41.3239 -80.3731 138° Southeast 481 554 31,000  Level Cleveland Center
08:48PM 41.2383 -80.2600 135° Southeast 481 554 31,000  Level Cleveland Center
08:49PM 41.1856 -80.0947 113° Southeast 481 554 31,000  Level Cleveland Center
08:50PM 41.1889 -79.9100 89° East 463 533 31,000  Level Cleveland Center
08:51PM 41.1917 -79.7222 89° East 483 556 31,000  Level Cleveland Center
08:52PM 41.1964 -79.5372 88° East 488 562 31,000  Level Cleveland Center
08:53PM 41.2008 -79.3494 88° East 499 574 31,000  Level Cleveland Center
08:54PM 41.2028 -79.1647 89° East 499 574 31,000  Level Cleveland Center
08:55PM 41.2044 -78.9769 89° East 499 574 31,000  Level Cleveland Center
08:56PM 41.2103 -78.7947 88° East 494 568 31,000  Level Cleveland Center
08:57PM 41.2114 -78.6094 89° East 494 568 31,000  Level Cleveland Center
08:59PM 41.2150 -78.2158 89° East 508 585 31,000  Level New York Center
09:00PM 41.2014 -78.0322 96° East 508 585 31,000  Level New York Center
09:01PM 41.1772 -77.8475 100° East 503 579 31,000  Level New York Center
09:02PM 41.1544 -77.6661 99° East 503 579 31,000 -420 Level New York Center
09:03PM 41.1297 -77.4817 100° East 508 585 30,200 -1,320 Descending New York Center
09:04PM 41.1067 -77.2975 99° East 508 585 28,400 -1,740 Descending New York Center
09:05PM 41.0828 -77.1192 100° East 508 585 26,700 -1,740 Descending New York Center
09:06PM 41.0586 -76.9489 101° East 487 560 25,000 -1,440 Descending New York Center
09:07PM 41.0394 -76.7958 99° East 458 527 23,900 -1,440 Descending New York Center
09:08PM 41.0172 -76.6536 102° East 415 478 22,200 -1,500 Descending New York Center
09:09PM 40.9864 -76.5217 107° East 391 450 20,900 -1,200 Descending New York Center
09:10PM 40.9622 -76.4178 107° East 378 435 19,900 -1,320 Descending New York Center
09:11PM 40.9258 -76.2611 107° East 371 427 18,300 -1,500 Descending New York Center
09:12PM 40.8942 -76.1322 108° East 371 427 16,900 -1,380 Descending New York Center
09:13PM 40.8658 -76.0175 108° East 371 427 15,600 -1,320 Descending New York Center
09:14PM 40.8361 -75.8892 107° East 371 427 14,400 -1,320 Descending New York Center
09:15PM 40.8022 -75.7550 108° East 357 411 13,000 -720 Descending New York Center
09:16PM 40.7700 -75.6319 109° East 350 403 13,000  Level New York Center
09:17PM 40.7414 -75.5122 107° East 350 403 13,000  Level New York Center
09:18PM 40.7186 -75.4039 105° East 350 403 13,000  Level New York Center
09:19PM 40.6886 -75.2675 106° East 350 403 13,000 -300 Level New York Center
09:20PM 40.6617 -75.1483 107° East 344 396 12,500 -1,140 Descending New York Center
09:21PM 40.6044 -75.0653 132° Southeast 339 390 10,700 -1,260 Descending New York Center
09:22PM 40.5578 -74.9694 123° Southeast 325 374 10,000 -360 Descending New York Center
09:23PM 40.5281 -74.8694 111° Southeast 277 319 10,000  Level New York Center
09:23PM 40.5167 -74.8333 113° Southeast 259 298 10,000  Level New York TRACON
09:25PM 40.4558 -74.7233 126° Southeast 253 291 10,000 -240 Level New York Center
09:25PM 40.4333 -74.7000 142° Southeast 236 272 9,600 -540 Descending New York TRACON
09:27PM 40.3636 -74.6172 138° Southeast 222 255 9,000 -240 Descending New York Center
09:28PM 40.3172 -74.5656 140° Southeast 222 255 9,000  Level New York Center
09:29PM 40.2669 -74.5056 138° Southeast 228 262 9,000  Level New York Center
09:29PM 40.2500 -74.4833 135° Southeast 220 253 9,000 -180 Level New York TRACON
09:30PM 40.2500 -74.4167 90° East 208 239 8,800 -780 Descending New York TRACON
09:32PM 40.2972 -74.3386 52° Northeast 176 203 7,000 -720 Descending New York Center
09:33PM 40.3344 -74.2778 51° Northeast 190 219 7,000  Level New York Center
09:34PM 40.3631 -74.2331 50° Northeast 190 219 7,000  Level New York Center
09:34PM 40.3833 -74.2167 32° Northeast 188 216 7,000 -120 Level New York TRACON
09:35PM 40.4167 -74.1667 49° Northeast 187 215 6,900 -660 Descending New York TRACON
09:36PM 40.4667 -74.1333 27° Northeast 182 209 5,700 -900 Descending New York TRACON
09:38PM 40.5500 -74.0667 31° Northeast 182 209 4,300 -660 Descending New York TRACON
09:40PM 40.6167 -74.0000 37° Northeast 148 170 3,200 -600 Descending New York TRACON